createdAt,value
2018-08-25T00:00:53.802Z,100474.77
2018-08-25T00:03:23.728Z,100476.96
2018-08-25T00:05:52.968Z,100469.78
2018-08-25T00:08:22.392Z,100472.33
2018-08-25T00:10:52.278Z,100476.12
2018-08-25T00:13:21.758Z,100480.49
2018-08-25T00:15:51.242Z,100477.45
2018-08-25T00:18:21.037Z,100475.49
2018-08-25T00:20:50.581Z,100472.72
2018-08-25T00:23:20.152Z,100472.72
2018-08-25T00:25:50.184Z,100472.14
2018-08-25T00:28:19.926Z,100482.09
2018-08-25T00:30:54.634Z,100475.77
2018-08-25T00:33:23.981Z,100477.86
2018-08-25T00:35:53.238Z,100476.52
2018-08-25T00:38:24.614Z,100480.44
2018-08-25T00:40:53.976Z,100477.30
2018-08-25T00:43:23.239Z,100479.49
2018-08-25T00:45:52.558Z,100482.04
2018-08-25T00:48:21.962Z,100481.52
2018-08-25T00:50:51.276Z,100488.21
2018-08-25T00:53:20.628Z,100481.91
2018-08-25T00:55:51.136Z,100485.80
2018-08-25T00:58:20.625Z,100482.40
2018-08-25T01:00:50.335Z,100477.63
2018-08-25T01:03:20.013Z,100477.53
2018-08-25T01:05:49.470Z,100475.84
2018-08-25T01:08:19.851Z,100475.97
2018-08-25T01:10:49.356Z,100477.05
2018-08-25T01:13:19.351Z,100471.09
2018-08-25T01:15:49.131Z,100463.81
2018-08-25T01:18:18.844Z,100462.70
2018-08-25T01:20:48.753Z,100470.73
2018-08-25T01:23:19.153Z,100473.94
2018-08-25T01:25:48.823Z,100471.88
2018-08-25T01:28:18.492Z,100475.53
2018-08-25T01:30:48.235Z,100477.94
2018-08-25T01:33:17.617Z,100484.41
2018-08-25T01:35:47.218Z,100482.24
2018-08-25T01:38:17.433Z,100469.72
2018-08-25T01:40:46.850Z,100472.13
2018-08-25T01:43:16.665Z,100466.07
2018-08-25T01:45:46.748Z,100460.10
2018-08-25T01:48:16.681Z,100459.02
2018-08-25T01:50:46.565Z,100447.59
2018-08-25T01:53:16.511Z,100440.28
2018-08-25T01:55:46.085Z,100440.64
2018-08-25T01:58:16.320Z,100441.02
2018-08-25T02:00:45.761Z,100441.72
2018-08-25T02:03:15.567Z,100431.52
2018-08-25T02:05:45.233Z,100434.19
2018-08-25T02:08:14.961Z,100426.64
2018-08-25T02:10:44.592Z,100437.13
2018-08-25T02:13:14.021Z,100432.98
2018-08-25T02:15:43.374Z,100443.19
2018-08-25T02:18:12.681Z,100436.63
2018-08-25T02:20:42.012Z,100436.76
2018-08-25T02:23:11.748Z,100426.28
2018-08-25T02:25:41.320Z,100420.83
2018-08-25T02:28:10.702Z,100420.59
2018-08-25T02:30:39.990Z,100424.97
2018-08-25T02:33:09.256Z,100423.73
2018-08-25T02:35:38.552Z,100426.53
2018-08-25T02:38:08.156Z,100433.84
2018-08-25T02:40:38.646Z,100434.95
2018-08-25T02:43:08.074Z,100440.05
2018-08-25T02:45:37.605Z,100435.42
2018-08-25T02:48:07.090Z,100427.90
2018-08-25T02:50:36.430Z,100424.25
2018-08-25T02:53:05.742Z,100418.53
2018-08-25T02:55:35.341Z,100410.88
2018-08-25T02:58:04.887Z,100415.98
2018-08-25T03:00:34.278Z,100406.52
2018-08-25T03:03:05.321Z,100406.87
2018-08-25T03:05:34.609Z,100408.04
2018-08-25T03:08:05.013Z,100401.97
2018-08-25T03:10:34.268Z,100403.30
2018-08-25T03:13:03.605Z,100403.30
2018-08-25T03:15:32.995Z,100403.30
2018-08-25T03:18:03.017Z,100399.19
2018-08-25T03:20:32.330Z,100404.89
2018-08-25T03:23:01.703Z,100408.16
2018-08-25T03:25:31.056Z,100405.73
2018-08-25T03:28:01.355Z,100399.05
2018-08-25T03:30:30.655Z,100398.33
2018-08-25T03:33:01.053Z,100396.16
2018-08-25T03:35:30.433Z,100396.02
2018-08-25T03:37:59.656Z,100395.55
2018-08-25T03:40:28.987Z,100390.31
2018-08-25T03:42:58.391Z,100393.22
2018-08-25T03:45:27.637Z,100389.70
2018-08-25T03:47:57.049Z,100388.36
2018-08-25T03:50:26.573Z,100385.33
2018-08-25T03:52:55.857Z,100380.70
2018-08-25T03:55:25.871Z,100378.77
2018-08-25T03:57:55.116Z,100379.61
2018-08-25T04:00:24.478Z,100376.69
2018-08-25T04:02:54.254Z,100378.30
2018-08-25T04:05:23.608Z,100374.98
2018-08-25T04:07:53.094Z,100377.80
2018-08-25T04:10:22.638Z,100375.98
2018-08-25T04:12:51.997Z,100371.47
2018-08-25T04:15:21.346Z,100370.13
2018-08-25T04:17:51.209Z,100368.80
2018-08-25T04:20:20.722Z,100365.53
2018-08-25T04:22:50.496Z,100365.04
2018-08-25T04:25:20.021Z,100370.26
2018-08-25T04:27:49.462Z,100363.22
2018-08-25T04:30:18.906Z,100357.61
2018-08-25T04:32:48.973Z,100365.53
2018-08-25T04:35:18.654Z,100365.89
2018-08-25T04:37:48.302Z,100345.73
2018-08-25T04:40:18.165Z,100360.08
2018-08-25T04:42:47.860Z,100353.03
2018-08-25T04:45:18.017Z,100352.65
2018-08-25T04:47:48.034Z,100354.58
2018-08-25T04:50:17.560Z,100353.02
2018-08-25T04:52:47.111Z,100346.56
2018-08-25T04:55:16.477Z,100349.37
2018-08-25T04:57:45.857Z,100349.70
2018-08-25T05:00:15.161Z,100351.05
2018-08-25T05:02:44.621Z,100347.41
2018-08-25T05:05:13.969Z,100352.85
2018-08-25T05:07:43.749Z,100346.33
2018-08-25T05:10:13.179Z,100348.84
2018-08-25T05:12:42.386Z,100337.92
2018-08-25T05:15:11.713Z,100338.25
2018-08-25T05:17:41.571Z,100336.66
2018-08-25T05:20:10.830Z,100336.97
2018-08-25T05:22:40.049Z,100340.85
2018-08-25T05:25:11.029Z,100336.88
2018-08-25T05:27:40.351Z,100336.01
2018-08-25T05:30:09.750Z,100334.76
2018-08-25T05:32:39.245Z,100338.14
2018-08-25T05:35:08.531Z,100341.73
2018-08-25T05:37:37.742Z,100344.84
2018-08-25T05:40:08.654Z,100339.50
2018-08-25T05:42:38.185Z,100339.63
2018-08-25T05:45:07.461Z,100335.52
2018-08-25T05:47:36.869Z,100330.98
2018-08-25T05:50:06.081Z,100325.84
2018-08-25T05:52:35.307Z,100328.60
2018-08-25T05:55:04.701Z,100321.05
2018-08-25T05:57:34.015Z,100318.20
2018-08-25T06:00:03.321Z,100315.45
2018-08-25T06:02:32.899Z,100320.05
2018-08-25T06:05:02.094Z,100321.00
2018-08-25T06:07:31.394Z,100323.85
2018-08-25T06:10:01.212Z,100323.45
2018-08-25T06:12:30.591Z,100326.78
2018-08-25T06:15:00.325Z,100332.67
2018-08-25T06:17:30.009Z,100336.92
2018-08-25T06:19:59.254Z,100332.62
2018-08-25T06:22:28.772Z,100334.27
2018-08-25T06:24:58.240Z,100325.88
2018-08-25T06:27:28.667Z,100331.36
2018-08-25T06:29:58.138Z,100330.02
2018-08-25T06:32:27.435Z,100329.91
2018-08-25T06:34:56.923Z,100335.69
2018-08-25T06:37:26.330Z,100335.55
2018-08-25T06:39:56.497Z,100329.20
2018-08-25T06:42:25.961Z,100330.78
2018-08-25T06:44:55.351Z,100327.23
2018-08-25T06:47:24.858Z,100323.06
2018-08-25T06:49:57.009Z,100327.34
2018-08-25T06:52:27.459Z,100332.05
2018-08-25T06:54:57.500Z,100335.92
2018-08-25T06:57:27.662Z,100333.85
2018-08-25T06:59:57.795Z,100338.27
2018-08-25T07:02:27.252Z,100335.34
2018-08-25T07:04:56.772Z,100336.45
2018-08-25T07:07:26.829Z,100341.38
2018-08-25T07:09:56.446Z,100339.69
2018-08-25T07:12:25.967Z,100337.08
2018-08-25T07:14:56.800Z,100341.34
2018-08-25T07:17:26.252Z,100337.50
2018-08-25T07:19:56.637Z,100331.23
2018-08-25T07:22:26.603Z,100329.66
2018-08-25T07:24:56.499Z,100326.61
2018-08-25T07:27:25.900Z,100326.14
2018-08-25T07:29:55.417Z,100336.00
2018-08-25T07:32:25.074Z,100338.86
2018-08-25T07:34:54.901Z,100332.44
2018-08-25T07:37:24.461Z,100336.91
2018-08-25T07:39:54.205Z,100340.11
2018-08-25T07:42:23.586Z,100334.00
2018-08-25T07:44:53.001Z,100329.27
2018-08-25T07:47:22.657Z,100326.52
2018-08-25T07:49:51.974Z,100333.94
2018-08-25T07:52:21.333Z,100327.15
2018-08-25T07:54:50.930Z,100332.28
2018-08-25T07:57:20.252Z,100336.27
2018-08-25T07:59:50.505Z,100335.53
2018-08-25T08:02:20.533Z,100337.24
2018-08-25T08:04:51.348Z,100330.12
2018-08-25T08:07:21.702Z,100333.74
2018-08-25T08:09:51.754Z,100329.34
2018-08-25T08:12:26.124Z,100326.84
2018-08-25T08:14:55.951Z,100324.03
2018-08-25T08:17:26.418Z,100332.37
2018-08-25T08:19:55.883Z,100330.88
2018-08-25T08:22:26.578Z,100331.00
2018-08-25T08:24:56.337Z,100323.61
2018-08-25T08:27:26.430Z,100328.21
2018-08-25T08:29:55.921Z,100328.87
2018-08-25T08:32:25.788Z,100328.84
2018-08-25T08:34:55.793Z,100328.91
2018-08-25T08:37:25.395Z,100338.11
2018-08-25T08:39:54.929Z,100334.57
2018-08-25T08:42:25.363Z,100338.27
2018-08-25T08:44:55.111Z,100340.30
2018-08-25T08:47:24.734Z,100336.35
2018-08-25T08:49:55.781Z,100342.05
2018-08-25T08:52:25.182Z,100342.08
2018-08-25T08:54:54.918Z,100332.91
2018-08-25T08:57:25.029Z,100337.20
2018-08-25T08:59:54.980Z,100338.11
2018-08-25T09:02:24.706Z,100335.23
2018-08-25T09:04:54.641Z,100331.09
2018-08-25T09:07:24.189Z,100336.57
2018-08-25T09:09:53.850Z,100342.91
2018-08-25T09:12:24.968Z,100341.28
2018-08-25T09:14:54.790Z,100333.86
2018-08-25T09:17:24.563Z,100336.78
2018-08-25T09:19:55.158Z,100343.21
2018-08-25T09:22:24.678Z,100348.38
2018-08-25T09:24:54.097Z,100342.53
2018-08-25T09:27:24.116Z,100350.99
2018-08-25T09:29:53.978Z,100352.69
2018-08-25T09:32:24.334Z,100348.22
2018-08-25T09:34:55.447Z,100350.65
2018-08-25T09:37:25.655Z,100346.27
2018-08-25T09:39:56.115Z,100348.72
2018-08-25T09:42:25.592Z,100343.45
2018-08-25T09:44:55.403Z,100340.52
2018-08-25T09:47:25.145Z,100340.31
2018-08-25T09:49:55.748Z,100339.73
2018-08-25T09:52:25.718Z,100339.95
2018-08-25T09:54:55.401Z,100341.11
2018-08-25T09:57:35.935Z,100342.61
2018-08-25T10:00:12.322Z,100340.86
2018-08-25T10:02:42.014Z,100335.59
2018-08-25T10:05:11.443Z,100334.64
2018-08-25T10:07:41.146Z,100330.36
2018-08-25T10:10:13.573Z,100332.55
2018-08-25T10:12:46.277Z,100330.89
2018-08-25T10:15:20.861Z,100326.58
2018-08-25T10:17:51.138Z,100324.64
2018-08-25T10:20:21.210Z,100318.78
2018-08-25T10:22:50.937Z,100308.45
2018-08-25T10:25:22.740Z,100308.80
2018-08-25T10:27:56.906Z,100315.43
2018-08-25T10:30:27.357Z,100310.77
2018-08-25T10:32:58.188Z,100306.09
2018-08-25T10:35:27.790Z,100303.42
2018-08-25T10:37:57.345Z,100306.84
2018-08-25T10:40:27.262Z,100313.39
2018-08-25T10:42:57.515Z,100316.50
2018-08-25T10:45:27.293Z,100319.63
2018-08-25T10:47:56.980Z,100320.23
2018-08-25T10:50:26.502Z,100320.90
2018-08-25T10:52:56.709Z,100310.81
2018-08-25T10:58:18.790Z,100313.59
2018-08-25T11:00:50.306Z,100306.02
2018-08-25T11:03:19.948Z,100298.49
2018-08-25T11:05:51.024Z,100296.84
2018-08-25T11:08:20.614Z,100301.61
2018-08-25T11:10:51.785Z,100312.83
2018-08-25T11:13:21.403Z,100317.86
2018-08-25T11:15:52.743Z,100325.52
2018-08-25T11:18:22.434Z,100322.43
2018-08-25T11:20:51.970Z,100313.89
2018-08-25T11:23:21.565Z,100320.97
2018-08-25T11:25:51.507Z,100321.81
2018-08-25T11:28:22.765Z,100312.88
2018-08-25T11:30:52.744Z,100313.67
2018-08-25T11:33:22.454Z,100308.34
2018-08-25T11:35:53.416Z,100305.33
2018-08-25T11:38:23.032Z,100290.92
2018-08-25T11:40:53.238Z,100296.09
2018-08-25T11:43:22.907Z,100293.67
2018-08-25T11:45:52.540Z,100292.74
2018-08-25T11:48:22.025Z,100297.16
2018-08-25T11:50:52.243Z,100303.56
2018-08-25T11:53:21.836Z,100300.84
2018-08-25T11:55:52.560Z,100303.02
2018-08-25T11:58:22.098Z,100310.28
2018-08-25T12:00:51.818Z,100309.69
2018-08-25T12:03:21.335Z,100307.72
2018-08-25T12:05:50.973Z,100304.33
2018-08-25T12:08:20.675Z,100293.47
2018-08-25T12:10:50.709Z,100301.11
2018-08-25T12:13:20.518Z,100299.47
2018-08-25T12:15:50.156Z,100306.43
2018-08-25T12:18:19.681Z,100310.50
2018-08-25T12:20:49.364Z,100312.45
2018-08-25T12:23:19.617Z,100317.77
2018-08-25T12:25:49.348Z,100325.70
2018-08-25T12:28:19.978Z,100327.78
2018-08-25T12:30:49.502Z,100325.34
2018-08-25T12:33:19.629Z,100324.13
2018-08-25T12:35:49.541Z,100334.15
2018-08-25T12:38:19.442Z,100329.27
2018-08-25T12:40:49.041Z,100329.52
2018-08-25T12:43:18.879Z,100322.11
2018-08-25T12:45:48.593Z,100331.00
2018-08-25T12:48:18.822Z,100333.34
2018-08-25T12:50:48.701Z,100323.25
2018-08-25T12:53:19.642Z,100328.96
2018-08-25T12:55:50.109Z,100332.81
2018-08-25T12:58:19.874Z,100335.77
2018-08-25T13:00:50.009Z,100333.73
2018-08-25T13:03:19.993Z,100336.80
2018-08-25T13:05:49.757Z,100332.11
2018-08-25T13:08:19.905Z,100334.59
2018-08-25T13:10:49.599Z,100334.49
2018-08-25T13:13:19.389Z,100333.63
2018-08-25T13:15:49.773Z,100335.45
2018-08-25T13:18:19.749Z,100331.55
2018-08-25T13:20:49.291Z,100328.64
2018-08-25T13:23:19.101Z,100324.30
2018-08-25T13:25:49.363Z,100335.53
2018-08-25T13:28:19.122Z,100341.08
2018-08-25T13:30:48.858Z,100340.34
2018-08-25T13:33:19.235Z,100340.00
2018-08-25T13:35:49.191Z,100345.27
2018-08-25T13:38:19.226Z,100346.92
2018-08-25T13:40:49.063Z,100353.53
2018-08-25T13:43:19.493Z,100352.11
2018-08-25T13:45:49.019Z,100356.22
2018-08-25T13:48:18.996Z,100358.08
2018-08-25T13:50:49.222Z,100355.09
2018-08-25T13:53:19.177Z,100358.92
2018-08-25T13:55:49.957Z,100357.78
2018-08-25T13:58:21.888Z,100367.39
2018-08-25T14:00:51.657Z,100364.01
2018-08-25T14:03:21.265Z,100366.20
2018-08-25T14:05:51.077Z,100363.86
2018-08-25T14:08:20.761Z,100376.49
2018-08-25T14:10:51.431Z,100379.87
2018-08-25T14:13:21.122Z,100379.48
2018-08-25T14:15:50.995Z,100378.05
2018-08-25T14:18:20.681Z,100378.32
2018-08-25T14:20:50.181Z,100383.23
2018-08-25T14:23:20.482Z,100376.08
2018-08-25T14:25:50.374Z,100376.61
2018-08-25T14:28:20.593Z,100378.09
2018-08-25T14:30:51.075Z,100377.60
2018-08-25T14:33:20.888Z,100376.75
2018-08-25T14:35:50.628Z,100382.83
2018-08-25T14:38:20.267Z,100380.10
2018-08-25T14:40:49.757Z,100375.60
2018-08-25T14:43:19.627Z,100385.16
2018-08-25T14:45:49.418Z,100382.69
2018-08-25T14:48:19.103Z,100381.27
2018-08-25T14:50:49.654Z,100384.20
2018-08-25T14:53:19.195Z,100377.29
2018-08-25T14:55:50.501Z,100377.88
2018-08-25T14:58:20.594Z,100377.44
2018-08-25T15:00:50.971Z,100372.58
2018-08-25T15:03:20.775Z,100371.37
2018-08-25T15:05:50.427Z,100373.66
2018-08-25T15:08:20.627Z,100375.63
2018-08-25T15:10:50.295Z,100371.34
2018-08-25T15:13:19.622Z,100369.23
2018-08-25T15:15:49.288Z,100368.05
2018-08-25T15:18:18.899Z,100372.56
2018-08-25T15:20:48.302Z,100375.63
2018-08-25T15:23:17.889Z,100378.70
2018-08-25T15:25:47.570Z,100386.55
2018-08-25T15:28:17.363Z,100377.44
2018-08-25T15:30:46.990Z,100384.20
2018-08-25T15:33:17.468Z,100385.33
2018-08-25T15:35:46.970Z,100387.30
2018-08-25T15:38:16.577Z,100394.30
2018-08-25T15:40:46.392Z,100394.84
2018-08-25T15:43:16.055Z,100393.77
2018-08-25T15:45:50.009Z,100401.54
2018-08-25T15:48:19.888Z,100405.84
2018-08-25T15:50:49.361Z,100413.61
2018-08-25T15:53:19.710Z,100416.34
2018-08-25T15:55:53.697Z,100419.53
2018-08-25T15:58:23.481Z,100418.38
2018-08-25T16:00:53.699Z,100414.03
2018-08-25T16:03:23.324Z,100424.77
2018-08-25T16:05:52.900Z,100426.61
2018-08-25T16:08:22.657Z,100429.80
2018-08-25T16:10:52.948Z,100418.99
2018-08-25T16:13:24.757Z,100431.50
2018-08-25T16:15:54.422Z,100431.30
2018-08-25T16:18:24.127Z,100423.23
2018-08-25T16:21:01.879Z,100431.03
2018-08-25T16:23:32.448Z,100426.41
2018-08-25T16:26:03.765Z,100428.22
2018-08-25T16:28:33.057Z,100423.61
2018-08-25T16:31:02.605Z,100421.61
2018-08-25T16:33:32.139Z,100424.03
2018-08-25T16:36:02.089Z,100423.92
2018-08-25T16:38:32.067Z,100427.53
2018-08-25T16:41:03.599Z,100421.03
2018-08-25T16:43:34.504Z,100424.73
2018-08-25T16:46:04.154Z,100423.19
2018-08-25T16:48:35.450Z,100423.53
2018-08-25T16:51:05.433Z,100433.61
2018-08-25T16:53:34.882Z,100438.03
2018-08-25T16:56:04.349Z,100445.19
2018-08-25T16:58:34.162Z,100450.48
2018-08-25T17:01:03.593Z,100448.41
2018-08-25T17:03:32.953Z,100453.02
2018-08-25T17:06:02.570Z,100454.28
2018-08-25T17:08:31.981Z,100460.91
2018-08-25T17:11:02.146Z,100468.20
2018-08-25T17:13:32.278Z,100461.69
2018-08-25T17:16:01.520Z,100461.94
2018-08-25T17:18:30.925Z,100468.66
2018-08-25T17:21:00.413Z,100463.69
2018-08-25T17:23:29.729Z,100467.96
2018-08-25T17:26:00.479Z,100475.38
2018-08-25T17:28:31.370Z,100463.98
2018-08-25T17:31:03.595Z,100468.41
2018-08-25T17:33:35.084Z,100465.72
2018-08-25T17:36:04.590Z,100462.19
2018-08-25T17:38:34.578Z,100467.37
2018-08-25T17:41:06.513Z,100472.34
2018-08-25T17:46:41.271Z,100472.91
2018-08-25T17:49:14.230Z,100471.85
2018-08-25T17:51:46.594Z,100478.84
2018-08-25T17:54:18.004Z,100476.80
2018-08-25T17:56:48.458Z,100484.22
2018-08-25T17:59:20.774Z,100480.77
2018-08-25T18:01:52.313Z,100482.41
2018-08-25T18:04:23.643Z,100490.67
2018-08-25T18:09:35.141Z,100499.02
2018-08-25T18:12:05.985Z,100500.00
2018-08-25T18:14:42.389Z,100497.50
2018-08-25T18:17:13.460Z,100498.76
2018-08-25T18:19:54.994Z,100499.16
2018-08-25T18:22:32.149Z,100508.73
2018-08-25T18:25:27.302Z,100507.93
2018-08-25T18:52:16.412Z,100553.22
2018-08-25T18:54:47.899Z,100560.42
2018-08-25T18:57:17.881Z,100560.07
2018-08-25T18:59:47.614Z,100558.79
2018-08-25T19:02:17.406Z,100558.33
2018-08-25T19:04:47.235Z,100557.20
2018-08-25T19:07:17.486Z,100565.14
2018-08-25T19:09:47.226Z,100556.34
2018-08-25T19:12:24.479Z,100558.68
2018-08-25T19:14:56.418Z,100561.91
2018-08-25T19:17:27.445Z,100567.30
2018-08-25T19:19:56.954Z,100570.76
2018-08-25T19:22:27.588Z,100569.77
2018-08-25T19:24:57.391Z,100573.30
2018-08-25T19:27:27.406Z,100573.94
2018-08-25T19:29:57.026Z,100571.14
2018-08-25T19:32:26.821Z,100574.94
2018-08-25T19:34:56.679Z,100580.95
2018-08-25T19:37:26.349Z,100573.76
2018-08-25T19:39:58.402Z,100584.88
2018-08-25T19:42:27.728Z,100586.46
2018-08-25T19:44:57.344Z,100583.11
2018-08-25T19:47:26.696Z,100588.22
2018-08-25T19:49:56.337Z,100595.60
2018-08-25T19:52:26.011Z,100591.58
2018-08-25T19:54:58.117Z,100591.68
2018-08-25T19:57:27.639Z,100596.86
2018-08-25T19:59:58.450Z,100600.63
2018-08-25T20:02:28.365Z,100599.86
2018-08-25T20:04:58.270Z,100593.02
2018-08-25T20:07:28.489Z,100599.64
2018-08-25T20:09:57.897Z,100596.87
2018-08-25T20:12:29.116Z,100604.07
2018-08-25T20:15:08.309Z,100602.02
2018-08-25T20:17:38.733Z,100599.83
2018-08-25T20:20:08.402Z,100598.62
2018-08-25T20:22:38.336Z,100599.02
2018-08-25T20:25:11.433Z,100604.25
2018-08-25T20:27:40.770Z,100605.37
2018-08-25T20:30:10.215Z,100606.58
2018-08-25T20:32:39.835Z,100611.84
2018-08-25T20:35:09.920Z,100613.80
2018-08-25T20:37:39.147Z,100611.13
2018-08-25T20:40:08.777Z,100608.44
2018-08-25T20:42:37.998Z,100615.17
2018-08-25T20:45:08.319Z,100613.82
2018-08-25T20:47:37.693Z,100609.70
2018-08-25T20:50:07.529Z,100614.70
2018-08-25T20:52:41.909Z,100618.97
2018-08-25T20:55:13.360Z,100619.70
2018-08-25T20:57:43.480Z,100627.01
2018-08-25T21:00:12.760Z,100626.65
2018-08-25T21:02:42.523Z,100636.86
2018-08-25T21:05:11.865Z,100631.89
2018-08-25T21:07:41.153Z,100634.79
2018-08-25T21:10:10.781Z,100649.03
2018-08-25T21:12:40.055Z,100639.91
2018-08-25T21:15:09.371Z,100646.24
2018-08-25T21:17:38.647Z,100651.70
2018-08-25T21:20:08.016Z,100650.37
2018-08-25T21:22:38.440Z,100650.73
2018-08-25T21:25:08.058Z,100648.05
2018-08-25T21:27:37.590Z,100660.59
2018-08-25T21:30:12.420Z,100653.80
2018-08-25T21:32:50.248Z,100664.13
2018-08-25T21:35:21.638Z,100663.89
2018-08-25T21:37:51.584Z,100662.06
2018-08-25T21:40:22.269Z,100662.67
2018-08-25T21:42:52.686Z,100665.22
2018-08-25T21:45:22.100Z,100664.88
2018-08-25T21:47:51.728Z,100673.49
2018-08-25T21:50:25.209Z,100674.11
2018-08-25T21:53:01.369Z,100680.20
2018-08-25T21:58:11.394Z,100697.22
2018-08-25T22:00:49.238Z,100691.98
2018-08-25T22:03:27.343Z,100697.47
2018-08-25T22:06:05.588Z,100699.14
2018-08-25T22:08:36.822Z,100701.22
2018-08-25T22:11:06.127Z,100703.78
2018-08-25T22:13:36.617Z,100701.83
2018-08-25T22:16:10.700Z,100710.34
2018-08-25T22:18:42.392Z,100708.16
2018-08-25T22:21:12.068Z,100706.33
2018-08-25T22:23:44.632Z,100708.28
2018-08-25T22:26:14.479Z,100706.45
2018-08-25T22:28:44.108Z,100707.42
2018-08-25T22:31:13.503Z,100706.66
2018-08-25T22:33:42.812Z,100704.11
2018-08-25T22:36:12.594Z,100707.03
2018-08-25T22:38:43.098Z,100708.50
2018-08-25T22:41:12.784Z,100709.10
2018-08-25T22:43:42.649Z,100702.78
2018-08-25T22:46:14.558Z,100715.19
2018-08-25T22:48:46.009Z,100711.14
2018-08-25T22:51:17.488Z,100709.31
2018-08-25T22:53:47.466Z,100706.27
2018-08-25T22:56:17.658Z,100718.68
2018-08-25T22:58:47.258Z,100718.92
2018-08-25T23:01:16.894Z,100718.56
2018-08-25T23:03:46.452Z,100718.92
2018-08-25T23:06:15.976Z,100720.38
2018-08-25T23:08:46.880Z,100727.84
2018-08-25T23:11:16.384Z,100723.67
2018-08-25T23:13:45.939Z,100729.02
2018-08-25T23:16:15.497Z,100733.64
2018-08-25T23:18:44.871Z,100731.94
2018-08-25T23:21:14.344Z,100731.57
2018-08-25T23:23:43.586Z,100735.06
2018-08-25T23:26:12.864Z,100741.63
2018-08-25T23:28:42.287Z,100742.84
2018-08-25T23:31:11.761Z,100740.00
2018-08-25T23:33:41.021Z,100747.91
2018-08-25T23:36:10.456Z,100739.20
2018-08-25T23:38:40.250Z,100739.69
2018-08-25T23:41:09.448Z,100742.23
2018-08-25T23:43:39.070Z,100739.32
2018-08-25T23:46:08.331Z,100744.55
2018-08-25T23:48:37.697Z,100752.69
2018-08-25T23:51:07.027Z,100752.08
2018-08-25T23:53:36.431Z,100754.27
2018-08-25T23:56:06.465Z,100758.52
2018-08-25T23:58:35.826Z,100753.01
